sensor_id;sensor_type;location;lat;lon;timestamp;P1;durP1;ratioP1;P2;durP2;ratioP2
22234;SDS011;11286;45.596;5.284;2022-09-17T00:02:12;7.07;;;3.50;;
22234;SDS011;11286;45.596;5.284;2022-09-17T00:04:37;4.18;;;3.33;;
22234;SDS011;11286;45.596;5.284;2022-09-17T00:07:03;3.42;;;3.13;;
22234;SDS011;11286;45.596;5.284;2022-09-17T00:09:28;6.95;;;3.63;;
22234;SDS011;11286;45.596;5.284;2022-09-17T00:11:54;4.53;;;3.15;;
22234;SDS011;11286;45.596;5.284;2022-09-17T00:14:20;5.50;;;3.90;;
22234;SDS011;11286;45.596;5.284;2022-09-17T00:16:46;3.80;;;3.50;;
22234;SDS011;11286;45.596;5.284;2022-09-17T00:19:14;4.50;;;3.42;;
22234;SDS011;11286;45.596;5.284;2022-09-17T00:21:43;6.95;;;3.80;;
22234;SDS011;11286;45.596;5.284;2022-09-17T00:24:10;7.20;;;3.80;;
22234;SDS011;11286;45.596;5.284;2022-09-17T00:26:37;6.25;;;3.65;;
22234;SDS011;11286;45.596;5.284;2022-09-17T00:29:03;7.38;;;3.80;;
22234;SDS011;11286;45.596;5.284;2022-09-17T00:31:29;4.68;;;3.33;;
22234;SDS011;11286;45.596;5.284;2022-09-17T00:33:56;4.45;;;3.33;;
22234;SDS011;11286;45.596;5.284;2022-09-17T00:36:23;4.88;;;3.88;;
22234;SDS011;11286;45.596;5.284;2022-09-17T00:38:56;5.82;;;3.75;;
22234;SDS011;11286;45.596;5.284;2022-09-17T00:41:24;4.47;;;3.50;;
22234;SDS011;11286;45.596;5.284;2022-09-17T00:43:55;6.78;;;3.78;;
22234;SDS011;11286;45.596;5.284;2022-09-17T00:49:00;6.05;;;3.50;;
22234;SDS011;11286;45.596;5.284;2022-09-17T00:51:38;6.13;;;3.92;;
22234;SDS011;11286;45.596;5.284;2022-09-17T00:54:19;6.68;;;3.90;;
22234;SDS011;11286;45.596;5.284;2022-09-17T00:56:45;5.25;;;4.00;;
22234;SDS011;11286;45.596;5.284;2022-09-17T00:59:12;10.43;;;4.07;;
22234;SDS011;11286;45.596;5.284;2022-09-17T01:01:39;5.90;;;3.63;;
22234;SDS011;11286;45.596;5.284;2022-09-17T01:04:04;6.32;;;3.78;;
22234;SDS011;11286;45.596;5.284;2022-09-17T01:06:52;5.60;;;3.55;;
22234;SDS011;11286;45.596;5.284;2022-09-17T01:12:24;4.82;;;3.50;;
22234;SDS011;11286;45.596;5.284;2022-09-17T01:15:20;7.78;;;3.42;;
22234;SDS011;11286;45.596;5.284;2022-09-17T01:31:45;4.93;;;4.07;;
22234;SDS011;11286;45.596;5.284;2022-09-17T01:34:33;5.32;;;3.90;;
22234;SDS011;11286;45.596;5.284;2022-09-17T01:42:23;5.57;;;4.05;;
22234;SDS011;11286;45.596;5.284;2022-09-17T01:47:31;4.22;;;3.83;;
22234;SDS011;11286;45.596;5.284;2022-09-17T01:50:04;7.72;;;4.07;;
22234;SDS011;11286;45.596;5.284;2022-09-17T01:52:35;6.18;;;4.82;;
22234;SDS011;11286;45.596;5.284;2022-09-17T01:55:04;6.47;;;4.20;;
22234;SDS011;11286;45.596;5.284;2022-09-17T01:57:39;9.95;;;4.47;;
22234;SDS011;11286;45.596;5.284;2022-09-17T02:00:12;5.18;;;4.35;;
22234;SDS011;11286;45.596;5.284;2022-09-17T02:05:11;4.50;;;3.95;;
22234;SDS011;11286;45.596;5.284;2022-09-17T02:07:55;6.93;;;4.30;;
22234;SDS011;11286;45.596;5.284;2022-09-17T02:10:29;7.07;;;4.03;;
22234;SDS011;11286;45.596;5.284;2022-09-17T02:13:01;5.13;;;3.97;;
22234;SDS011;11286;45.596;5.284;2022-09-17T02:15:36;5.95;;;3.80;;
22234;SDS011;11286;45.596;5.284;2022-09-17T02:18:12;5.32;;;3.92;;
22234;SDS011;11286;45.596;5.284;2022-09-17T02:20:50;5.10;;;3.97;;
22234;SDS011;11286;45.596;5.284;2022-09-17T02:23:21;5.68;;;3.72;;
22234;SDS011;11286;45.596;5.284;2022-09-17T02:25:58;4.55;;;3.58;;
22234;SDS011;11286;45.596;5.284;2022-09-17T02:31:04;4.10;;;3.65;;
22234;SDS011;11286;45.596;5.284;2022-09-17T02:33:30;5.85;;;3.67;;
22234;SDS011;11286;45.596;5.284;2022-09-17T02:35:58;5.22;;;3.83;;
22234;SDS011;11286;45.596;5.284;2022-09-17T02:38:26;7.50;;;3.92;;
22234;SDS011;11286;45.596;5.284;2022-09-17T02:41:00;4.20;;;3.70;;
22234;SDS011;11286;45.596;5.284;2022-09-17T02:46:29;6.07;;;3.70;;
22234;SDS011;11286;45.596;5.284;2022-09-17T02:49:23;7.55;;;3.85;;
22234;SDS011;11286;45.596;5.284;2022-09-17T02:54:37;6.55;;;3.67;;
22234;SDS011;11286;45.596;5.284;2022-09-17T02:57:45;5.45;;;3.75;;
22234;SDS011;11286;45.596;5.284;2022-09-17T03:00:24;7.10;;;3.97;;
22234;SDS011;11286;45.596;5.284;2022-09-17T03:05:26;8.02;;;3.80;;
22234;SDS011;11286;45.596;5.284;2022-09-17T03:07:54;5.53;;;3.72;;
22234;SDS011;11286;45.596;5.284;2022-09-17T03:10:21;6.80;;;3.75;;
22234;SDS011;11286;45.596;5.284;2022-09-17T03:12:47;5.18;;;3.30;;
22234;SDS011;11286;45.596;5.284;2022-09-17T03:15:13;6.35;;;3.67;;
22234;SDS011;11286;45.596;5.284;2022-09-17T03:17:39;4.32;;;3.78;;
22234;SDS011;11286;45.596;5.284;2022-09-17T03:20:04;7.70;;;3.78;;
22234;SDS011;11286;45.596;5.284;2022-09-17T03:22:30;6.05;;;3.85;;
22234;SDS011;11286;45.596;5.284;2022-09-17T03:24:56;5.53;;;3.67;;
22234;SDS011;11286;45.596;5.284;2022-09-17T03:27:22;6.32;;;4.28;;
22234;SDS011;11286;45.596;5.284;2022-09-17T03:29:47;7.35;;;4.05;;
22234;SDS011;11286;45.596;5.284;2022-09-17T03:32:13;9.07;;;4.05;;
22234;SDS011;11286;45.596;5.284;2022-09-17T03:34:39;8.18;;;3.80;;
22234;SDS011;11286;45.596;5.284;2022-09-17T03:37:04;4.53;;;3.58;;
22234;SDS011;11286;45.596;5.284;2022-09-17T03:39:30;6.95;;;3.60;;
22234;SDS011;11286;45.596;5.284;2022-09-17T03:41:56;5.00;;;4.00;;
22234;SDS011;11286;45.596;5.284;2022-09-17T03:44:21;10.80;;;4.30;;
22234;SDS011;11286;45.596;5.284;2022-09-17T03:46:48;6.30;;;4.03;;
22234;SDS011;11286;45.596;5.284;2022-09-17T03:49:14;7.05;;;3.80;;
22234;SDS011;11286;45.596;5.284;2022-09-17T03:51:39;5.78;;;3.92;;
22234;SDS011;11286;45.596;5.284;2022-09-17T03:54:05;5.65;;;4.00;;
22234;SDS011;11286;45.596;5.284;2022-09-17T03:56:31;7.90;;;4.13;;
22234;SDS011;11286;45.596;5.284;2022-09-17T03:59:00;6.38;;;4.25;;
22234;SDS011;11286;45.596;5.284;2022-09-17T04:01:26;7.25;;;4.10;;
22234;SDS011;11286;45.596;5.284;2022-09-17T04:03:53;7.22;;;4.35;;
22234;SDS011;11286;45.596;5.284;2022-09-17T04:06:18;6.60;;;3.90;;
22234;SDS011;11286;45.596;5.284;2022-09-17T04:08:44;5.43;;;4.30;;
22234;SDS011;11286;45.596;5.284;2022-09-17T04:11:09;4.20;;;3.65;;
22234;SDS011;11286;45.596;5.284;2022-09-17T04:13:35;7.15;;;4.20;;
22234;SDS011;11286;45.596;5.284;2022-09-17T04:16:01;5.60;;;3.78;;
22234;SDS011;11286;45.596;5.284;2022-09-17T04:18:28;5.22;;;3.55;;
22234;SDS011;11286;45.596;5.284;2022-09-17T04:20:54;6.60;;;3.83;;
22234;SDS011;11286;45.596;5.284;2022-09-17T04:23:19;5.97;;;3.58;;
22234;SDS011;11286;45.596;5.284;2022-09-17T04:25:45;4.88;;;3.40;;
22234;SDS011;11286;45.596;5.284;2022-09-17T04:28:11;7.15;;;3.58;;
22234;SDS011;11286;45.596;5.284;2022-09-17T04:30:36;5.97;;;4.00;;
22234;SDS011;11286;45.596;5.284;2022-09-17T04:33:03;6.72;;;3.58;;
22234;SDS011;11286;45.596;5.284;2022-09-17T04:35:28;5.18;;;3.70;;
22234;SDS011;11286;45.596;5.284;2022-09-17T04:37:55;6.95;;;3.90;;
22234;SDS011;11286;45.596;5.284;2022-09-17T04:40:21;7.10;;;3.55;;
22234;SDS011;11286;45.596;5.284;2022-09-17T04:42:50;7.93;;;3.95;;
22234;SDS011;11286;45.596;5.284;2022-09-17T04:45:17;5.95;;;4.05;;
22234;SDS011;11286;45.596;5.284;2022-09-17T04:47:42;5.43;;;4.05;;
22234;SDS011;11286;45.596;5.284;2022-09-17T04:50:08;4.53;;;3.70;;
22234;SDS011;11286;45.596;5.284;2022-09-17T04:52:35;9.85;;;3.90;;
22234;SDS011;11286;45.596;5.284;2022-09-17T04:55:00;6.10;;;3.65;;
22234;SDS011;11286;45.596;5.284;2022-09-17T04:57:26;4.47;;;3.75;;
22234;SDS011;11286;45.596;5.284;2022-09-17T04:59:52;4.68;;;3.85;;
22234;SDS011;11286;45.596;5.284;2022-09-17T05:02:17;3.95;;;3.53;;
22234;SDS011;11286;45.596;5.284;2022-09-17T05:04:43;4.05;;;3.60;;
22234;SDS011;11286;45.596;5.284;2022-09-17T05:07:09;6.40;;;3.65;;
22234;SDS011;11286;45.596;5.284;2022-09-17T05:09:34;4.65;;;3.50;;
22234;SDS011;11286;45.596;5.284;2022-09-17T05:12:00;3.65;;;3.35;;
22234;SDS011;11286;45.596;5.284;2022-09-17T05:14:26;6.63;;;3.78;;
22234;SDS011;11286;45.596;5.284;2022-09-17T05:16:51;7.80;;;3.55;;
22234;SDS011;11286;45.596;5.284;2022-09-17T05:19:17;6.47;;;3.60;;
22234;SDS011;11286;45.596;5.284;2022-09-17T05:21:43;3.70;;;3.10;;
22234;SDS011;11286;45.596;5.284;2022-09-17T05:24:08;5.18;;;3.55;;
22234;SDS011;11286;45.596;5.284;2022-09-17T05:26:34;7.75;;;3.92;;
22234;SDS011;11286;45.596;5.284;2022-09-17T05:28:59;6.72;;;3.50;;
22234;SDS011;11286;45.596;5.284;2022-09-17T05:31:25;4.90;;;3.58;;
22234;SDS011;11286;45.596;5.284;2022-09-17T05:33:51;5.47;;;3.35;;
22234;SDS011;11286;45.596;5.284;2022-09-17T05:36:16;5.55;;;3.47;;
22234;SDS011;11286;45.596;5.284;2022-09-17T05:38:42;4.55;;;3.35;;
22234;SDS011;11286;45.596;5.284;2022-09-17T05:41:07;4.88;;;3.50;;
22234;SDS011;11286;45.596;5.284;2022-09-17T05:43:33;4.35;;;3.53;;
22234;SDS011;11286;45.596;5.284;2022-09-17T05:46:02;8.57;;;3.95;;
22234;SDS011;11286;45.596;5.284;2022-09-17T05:48:29;4.80;;;3.83;;
22234;SDS011;11286;45.596;5.284;2022-09-17T05:50:55;4.95;;;3.92;;
22234;SDS011;11286;45.596;5.284;2022-09-17T05:53:21;8.80;;;4.30;;
22234;SDS011;11286;45.596;5.284;2022-09-17T05:55:47;4.28;;;3.85;;
22234;SDS011;11286;45.596;5.284;2022-09-17T05:58:14;5.90;;;4.20;;
22234;SDS011;11286;45.596;5.284;2022-09-17T06:00:41;7.00;;;4.70;;
22234;SDS011;11286;45.596;5.284;2022-09-17T06:03:11;8.32;;;4.70;;
22234;SDS011;11286;45.596;5.284;2022-09-17T06:05:38;5.78;;;4.10;;
22234;SDS011;11286;45.596;5.284;2022-09-17T06:08:04;4.43;;;3.20;;
22234;SDS011;11286;45.596;5.284;2022-09-17T06:10:30;6.22;;;3.53;;
22234;SDS011;11286;45.596;5.284;2022-09-17T06:12:57;8.25;;;3.50;;
22234;SDS011;11286;45.596;5.284;2022-09-17T06:15:23;4.22;;;3.10;;
22234;SDS011;11286;45.596;5.284;2022-09-17T06:17:50;4.53;;;2.80;;
22234;SDS011;11286;45.596;5.284;2022-09-17T06:20:16;3.35;;;2.90;;
22234;SDS011;11286;45.596;5.284;2022-09-17T06:22:42;3.30;;;2.30;;
22234;SDS011;11286;45.596;5.284;2022-09-17T06:25:08;3.03;;;2.70;;
22234;SDS011;11286;45.596;5.284;2022-09-17T06:27:34;4.13;;;2.42;;
22234;SDS011;11286;45.596;5.284;2022-09-17T06:30:00;2.75;;;2.05;;
22234;SDS011;11286;45.596;5.284;2022-09-17T06:32:26;4.75;;;2.30;;
22234;SDS011;11286;45.596;5.284;2022-09-17T06:34:52;5.47;;;2.78;;
22234;SDS011;11286;45.596;5.284;2022-09-17T06:37:19;2.42;;;2.17;;
22234;SDS011;11286;45.596;5.284;2022-09-17T06:39:50;4.20;;;2.30;;
22234;SDS011;11286;45.596;5.284;2022-09-17T06:42:16;3.95;;;2.00;;
22234;SDS011;11286;45.596;5.284;2022-09-17T06:44:42;5.28;;;2.13;;
22234;SDS011;11286;45.596;5.284;2022-09-17T06:47:07;3.05;;;2.13;;
22234;SDS011;11286;45.596;5.284;2022-09-17T06:49:33;3.58;;;2.15;;
22234;SDS011;11286;45.596;5.284;2022-09-17T06:51:59;2.72;;;1.80;;
22234;SDS011;11286;45.596;5.284;2022-09-17T06:54:24;4.40;;;2.00;;
22234;SDS011;11286;45.596;5.284;2022-09-17T06:56:50;4.40;;;2.00;;
22234;SDS011;11286;45.596;5.284;2022-09-17T06:59:15;4.72;;;2.10;;
22234;SDS011;11286;45.596;5.284;2022-09-17T07:01:42;4.85;;;2.60;;
22234;SDS011;11286;45.596;5.284;2022-09-17T07:04:08;3.92;;;1.83;;
22234;SDS011;11286;45.596;5.284;2022-09-17T07:06:33;3.08;;;1.55;;
22234;SDS011;11286;45.596;5.284;2022-09-17T07:09:00;3.05;;;1.80;;
22234;SDS011;11286;45.596;5.284;2022-09-17T07:11:25;3.88;;;2.03;;
22234;SDS011;11286;45.596;5.284;2022-09-17T07:13:53;1.52;;;1.38;;
22234;SDS011;11286;45.596;5.284;2022-09-17T07:16:19;2.38;;;1.63;;
22234;SDS011;11286;45.596;5.284;2022-09-17T07:18:45;3.30;;;1.70;;
22234;SDS011;11286;45.596;5.284;2022-09-17T07:21:11;2.03;;;1.50;;
22234;SDS011;11286;45.596;5.284;2022-09-17T07:23:36;5.93;;;1.65;;
22234;SDS011;11286;45.596;5.284;2022-09-17T07:26:03;3.55;;;1.52;;
22234;SDS011;11286;45.596;5.284;2022-09-17T07:28:30;2.05;;;1.35;;
22234;SDS011;11286;45.596;5.284;2022-09-17T07:30:56;2.13;;;1.40;;
22234;SDS011;11286;45.596;5.284;2022-09-17T07:33:23;1.90;;;1.50;;
22234;SDS011;11286;45.596;5.284;2022-09-17T07:35:51;1.73;;;1.58;;
22234;SDS011;11286;45.596;5.284;2022-09-17T07:38:17;3.88;;;1.60;;
22234;SDS011;11286;45.596;5.284;2022-09-17T07:40:43;3.28;;;1.30;;
22234;SDS011;11286;45.596;5.284;2022-09-17T07:43:19;5.72;;;1.77;;
22234;SDS011;11286;45.596;5.284;2022-09-17T07:45:45;2.30;;;1.38;;
22234;SDS011;11286;45.596;5.284;2022-09-17T07:48:10;2.28;;;1.40;;
22234;SDS011;11286;45.596;5.284;2022-09-17T07:50:36;3.15;;;1.27;;
22234;SDS011;11286;45.596;5.284;2022-09-17T07:53:02;1.77;;;1.13;;
22234;SDS011;11286;45.596;5.284;2022-09-17T07:55:28;2.72;;;1.48;;
22234;SDS011;11286;45.596;5.284;2022-09-17T07:57:54;4.22;;;1.20;;
22234;SDS011;11286;45.596;5.284;2022-09-17T08:00:19;3.75;;;1.20;;
22234;SDS011;11286;45.596;5.284;2022-09-17T08:02:51;3.20;;;1.27;;
22234;SDS011;11286;45.596;5.284;2022-09-17T08:05:17;3.55;;;1.13;;
22234;SDS011;11286;45.596;5.284;2022-09-17T08:07:43;2.75;;;1.00;;
22234;SDS011;11286;45.596;5.284;2022-09-17T08:10:08;1.77;;;1.02;;
22234;SDS011;11286;45.596;5.284;2022-09-17T08:12:34;1.83;;;1.15;;
22234;SDS011;11286;45.596;5.284;2022-09-17T08:15:00;2.65;;;0.93;;
22234;SDS011;11286;45.596;5.284;2022-09-17T08:17:25;2.30;;;1.02;;
22234;SDS011;11286;45.596;5.284;2022-09-17T08:19:51;1.88;;;0.80;;
22234;SDS011;11286;45.596;5.284;2022-09-17T08:22:16;2.70;;;0.98;;
22234;SDS011;11286;45.596;5.284;2022-09-17T08:24:42;2.67;;;1.23;;
22234;SDS011;11286;45.596;5.284;2022-09-17T08:27:08;3.20;;;1.08;;
22234;SDS011;11286;45.596;5.284;2022-09-17T08:29:34;3.10;;;1.05;;
22234;SDS011;11286;45.596;5.284;2022-09-17T08:31:59;2.38;;;0.90;;
22234;SDS011;11286;45.596;5.284;2022-09-17T08:34:25;2.70;;;0.80;;
22234;SDS011;11286;45.596;5.284;2022-09-17T08:36:51;4.00;;;1.05;;
22234;SDS011;11286;45.596;5.284;2022-09-17T08:39:17;3.85;;;0.88;;
22234;SDS011;11286;45.596;5.284;2022-09-17T08:44:14;3.33;;;1.05;;
22234;SDS011;11286;45.596;5.284;2022-09-17T08:49:31;2.08;;;0.63;;
22234;SDS011;11286;45.596;5.284;2022-09-17T08:52:08;1.77;;;0.85;;
22234;SDS011;11286;45.596;5.284;2022-09-17T08:57:40;1.77;;;0.80;;
22234;SDS011;11286;45.596;5.284;2022-09-17T09:05:07;1.08;;;0.68;;
22234;SDS011;11286;45.596;5.284;2022-09-17T09:07:44;4.28;;;0.75;;
22234;SDS011;11286;45.596;5.284;2022-09-17T09:12:47;1.25;;;0.63;;
22234;SDS011;11286;45.596;5.284;2022-09-17T09:18:02;3.25;;;0.77;;
22234;SDS011;11286;45.596;5.284;2022-09-17T09:20:47;2.90;;;0.65;;
22234;SDS011;11286;45.596;5.284;2022-09-17T09:26:17;2.10;;;0.68;;
22234;SDS011;11286;45.596;5.284;2022-09-17T09:34:16;1.35;;;0.80;;
22234;SDS011;11286;45.596;5.284;2022-09-17T09:36:42;3.03;;;0.90;;
22234;SDS011;11286;45.596;5.284;2022-09-17T09:39:25;2.03;;;0.80;;
22234;SDS011;11286;45.596;5.284;2022-09-17T09:42:41;3.00;;;0.90;;
22234;SDS011;11286;45.596;5.284;2022-09-17T09:44:55;1.92;;;0.90;;
22234;SDS011;11286;45.596;5.284;2022-09-17T09:50:26;1.70;;;0.80;;
22234;SDS011;11286;45.596;5.284;2022-09-17T09:52:59;2.17;;;0.70;;
22234;SDS011;11286;45.596;5.284;2022-09-17T09:58:36;2.78;;;0.70;;
22234;SDS011;11286;45.596;5.284;2022-09-17T10:01:07;1.60;;;0.68;;
22234;SDS011;11286;45.596;5.284;2022-09-17T10:03:44;0.60;;;0.50;;
22234;SDS011;11286;45.596;5.284;2022-09-17T10:06:14;1.95;;;0.77;;
22234;SDS011;11286;45.596;5.284;2022-09-17T10:08:43;3.88;;;0.70;;
22234;SDS011;11286;45.596;5.284;2022-09-17T10:11:27;1.02;;;0.68;;
22234;SDS011;11286;45.596;5.284;2022-09-17T10:14:12;2.28;;;0.70;;
22234;SDS011;11286;45.596;5.284;2022-09-17T10:16:40;1.70;;;0.60;;
22234;SDS011;11286;45.596;5.284;2022-09-17T10:21:35;2.28;;;0.75;;
22234;SDS011;11286;45.596;5.284;2022-09-17T10:24:04;1.60;;;0.60;;
22234;SDS011;11286;45.596;5.284;2022-09-17T10:26:58;3.20;;;1.00;;
22234;SDS011;11286;45.596;5.284;2022-09-17T10:29:26;1.55;;;0.80;;
22234;SDS011;11286;45.596;5.284;2022-09-17T10:31:53;1.35;;;0.60;;
22234;SDS011;11286;45.596;5.284;2022-09-17T10:34:24;0.65;;;0.50;;
22234;SDS011;11286;45.596;5.284;2022-09-17T10:36:55;2.65;;;0.60;;
22234;SDS011;11286;45.596;5.284;2022-09-17T10:41:58;1.20;;;0.70;;
22234;SDS011;11286;45.596;5.284;2022-09-17T10:44:26;1.30;;;0.60;;
22234;SDS011;11286;45.596;5.284;2022-09-17T10:47:17;1.63;;;0.52;;
22234;SDS011;11286;45.596;5.284;2022-09-17T10:49:52;0.90;;;0.60;;
22234;SDS011;11286;45.596;5.284;2022-09-17T11:00:46;2.60;;;0.70;;
22234;SDS011;11286;45.596;5.284;2022-09-17T11:09:22;1.88;;;0.82;;
22234;SDS011;11286;45.596;5.284;2022-09-17T11:25:56;0.77;;;0.40;;
22234;SDS011;11286;45.596;5.284;2022-09-17T11:34:36;1.80;;;0.65;;
22234;SDS011;11286;45.596;5.284;2022-09-17T11:37:10;1.65;;;0.80;;
22234;SDS011;11286;45.596;5.284;2022-09-17T11:39:59;1.23;;;0.70;;
22234;SDS011;11286;45.596;5.284;2022-09-17T11:45:31;0.98;;;0.60;;
22234;SDS011;11286;45.596;5.284;2022-09-17T11:48:04;2.15;;;0.75;;
22234;SDS011;11286;45.596;5.284;2022-09-17T11:50:39;1.02;;;0.60;;
22234;SDS011;11286;45.596;5.284;2022-09-17T11:53:31;5.15;;;0.63;;
22234;SDS011;11286;45.596;5.284;2022-09-17T11:55:59;1.70;;;0.70;;
22234;SDS011;11286;45.596;5.284;2022-09-17T11:58:41;1.27;;;0.60;;
22234;SDS011;11286;45.596;5.284;2022-09-17T12:01:44;0.82;;;0.55;;
22234;SDS011;11286;45.596;5.284;2022-09-17T12:06:57;1.40;;;0.75;;
22234;SDS011;11286;45.596;5.284;2022-09-17T12:09:32;1.02;;;0.60;;
22234;SDS011;11286;45.596;5.284;2022-09-17T12:14:45;0.88;;;0.50;;
22234;SDS011;11286;45.596;5.284;2022-09-17T12:17:27;1.38;;;0.47;;
22234;SDS011;11286;45.596;5.284;2022-09-17T12:20:07;2.08;;;0.80;;
22234;SDS011;11286;45.596;5.284;2022-09-17T12:22:46;2.90;;;0.80;;
22234;SDS011;11286;45.596;5.284;2022-09-17T12:25:14;0.70;;;0.45;;
22234;SDS011;11286;45.596;5.284;2022-09-17T12:27:59;2.28;;;0.75;;
22234;SDS011;11286;45.596;5.284;2022-09-17T12:30:37;0.98;;;0.60;;
22234;SDS011;11286;45.596;5.284;2022-09-17T12:38:50;1.17;;;0.70;;
22234;SDS011;11286;45.596;5.284;2022-09-17T12:57:40;1.85;;;0.60;;
22234;SDS011;11286;45.596;5.284;2022-09-17T13:00:15;2.80;;;0.70;;
22234;SDS011;11286;45.596;5.284;2022-09-17T13:02:50;1.90;;;0.65;;
22234;SDS011;11286;45.596;5.284;2022-09-17T13:13:55;1.90;;;0.60;;
22234;SDS011;11286;45.596;5.284;2022-09-17T13:19:43;2.25;;;0.77;;
22234;SDS011;11286;45.596;5.284;2022-09-17T13:22:19;1.65;;;0.88;;
22234;SDS011;11286;45.596;5.284;2022-09-17T13:24:47;0.65;;;0.50;;
22234;SDS011;11286;45.596;5.284;2022-09-17T13:27:29;1.38;;;0.60;;
22234;SDS011;11286;45.596;5.284;2022-09-17T13:29:56;1.17;;;0.60;;
22234;SDS011;11286;45.596;5.284;2022-09-17T13:35:15;2.60;;;0.68;;
22234;SDS011;11286;45.596;5.284;2022-09-17T13:45:21;1.05;;;0.50;;
22234;SDS011;11286;45.596;5.284;2022-09-17T13:47:51;3.50;;;0.70;;
22234;SDS011;11286;45.596;5.284;2022-09-17T13:58:10;1.92;;;0.70;;
22234;SDS011;11286;45.596;5.284;2022-09-17T14:00:50;3.53;;;0.82;;
22234;SDS011;11286;45.596;5.284;2022-09-17T14:27:16;2.50;;;0.98;;
22234;SDS011;11286;45.596;5.284;2022-09-17T14:38:08;2.70;;;0.65;;
22234;SDS011;11286;45.596;5.284;2022-09-17T14:40:45;2.17;;;0.82;;
22234;SDS011;11286;45.596;5.284;2022-09-17T14:46:28;1.55;;;0.70;;
22234;SDS011;11286;45.596;5.284;2022-09-17T14:51:51;0.80;;;0.60;;
22234;SDS011;11286;45.596;5.284;2022-09-17T14:54:21;2.47;;;0.88;;
22234;SDS011;11286;45.596;5.284;2022-09-17T14:56:56;2.15;;;0.63;;
22234;SDS011;11286;45.596;5.284;2022-09-17T15:02:18;1.23;;;0.55;;
22234;SDS011;11286;45.596;5.284;2022-09-17T15:04:50;0.93;;;0.55;;
22234;SDS011;11286;45.596;5.284;2022-09-17T15:07:16;0.90;;;0.60;;
22234;SDS011;11286;45.596;5.284;2022-09-17T15:09:45;1.00;;;0.73;;
22234;SDS011;11286;45.596;5.284;2022-09-17T15:12:11;1.77;;;0.65;;
22234;SDS011;11286;45.596;5.284;2022-09-17T15:14:40;1.45;;;0.88;;
22234;SDS011;11286;45.596;5.284;2022-09-17T15:17:13;0.98;;;0.73;;
22234;SDS011;11286;45.596;5.284;2022-09-17T15:19:43;1.35;;;0.75;;
22234;SDS011;11286;45.596;5.284;2022-09-17T15:22:14;1.83;;;0.75;;
22234;SDS011;11286;45.596;5.284;2022-09-17T15:24:52;1.23;;;0.60;;
22234;SDS011;11286;45.596;5.284;2022-09-17T15:27:30;2.67;;;0.90;;
22234;SDS011;11286;45.596;5.284;2022-09-17T15:30:05;2.15;;;0.80;;
22234;SDS011;11286;45.596;5.284;2022-09-17T15:32:36;2.03;;;0.80;;
22234;SDS011;11286;45.596;5.284;2022-09-17T15:35:12;1.50;;;0.60;;
22234;SDS011;11286;45.596;5.284;2022-09-17T15:37:49;1.10;;;0.60;;
22234;SDS011;11286;45.596;5.284;2022-09-17T15:40:26;1.55;;;0.77;;
22234;SDS011;11286;45.596;5.284;2022-09-17T15:42:56;1.23;;;0.75;;
22234;SDS011;11286;45.596;5.284;2022-09-17T15:45:37;2.85;;;0.60;;
22234;SDS011;11286;45.596;5.284;2022-09-17T15:48:14;2.83;;;0.85;;
22234;SDS011;11286;45.596;5.284;2022-09-17T15:50:51;1.58;;;0.65;;
22234;SDS011;11286;45.596;5.284;2022-09-17T16:06:33;2.25;;;1.08;;
22234;SDS011;11286;45.596;5.284;2022-09-17T16:08:57;1.55;;;0.60;;
22234;SDS011;11286;45.596;5.284;2022-09-17T16:11:25;1.25;;;0.70;;
22234;SDS011;11286;45.596;5.284;2022-09-17T16:13:54;1.48;;;0.77;;
22234;SDS011;11286;45.596;5.284;2022-09-17T16:16:30;3.83;;;1.05;;
22234;SDS011;11286;45.596;5.284;2022-09-17T16:18:58;1.83;;;0.80;;
22234;SDS011;11286;45.596;5.284;2022-09-17T16:21:24;1.67;;;0.55;;
22234;SDS011;11286;45.596;5.284;2022-09-17T16:23:50;4.22;;;0.70;;
22234;SDS011;11286;45.596;5.284;2022-09-17T16:26:18;1.42;;;0.70;;
22234;SDS011;11286;45.596;5.284;2022-09-17T16:28:55;1.27;;;0.55;;
22234;SDS011;11286;45.596;5.284;2022-09-17T16:31:27;1.05;;;0.70;;
22234;SDS011;11286;45.596;5.284;2022-09-17T16:33:53;2.03;;;0.68;;
22234;SDS011;11286;45.596;5.284;2022-09-17T16:36:19;2.60;;;0.93;;
22234;SDS011;11286;45.596;5.284;2022-09-17T16:38:45;1.23;;;0.60;;
22234;SDS011;11286;45.596;5.284;2022-09-17T16:41:11;1.65;;;0.47;;
22234;SDS011;11286;45.596;5.284;2022-09-17T16:43:37;1.38;;;0.70;;
22234;SDS011;11286;45.596;5.284;2022-09-17T16:46:05;1.13;;;0.65;;
22234;SDS011;11286;45.596;5.284;2022-09-17T16:48:32;1.58;;;0.60;;
22234;SDS011;11286;45.596;5.284;2022-09-17T16:50:58;2.22;;;0.60;;
22234;SDS011;11286;45.596;5.284;2022-09-17T16:53:27;1.67;;;0.73;;
22234;SDS011;11286;45.596;5.284;2022-09-17T16:55:53;1.92;;;0.70;;
22234;SDS011;11286;45.596;5.284;2022-09-17T16:58:18;2.28;;;0.70;;
22234;SDS011;11286;45.596;5.284;2022-09-17T17:00:44;2.20;;;0.70;;
22234;SDS011;11286;45.596;5.284;2022-09-17T17:03:10;0.68;;;0.50;;
22234;SDS011;11286;45.596;5.284;2022-09-17T17:05:37;1.02;;;0.70;;
22234;SDS011;11286;45.596;5.284;2022-09-17T17:08:04;0.95;;;0.52;;
22234;SDS011;11286;45.596;5.284;2022-09-17T17:10:31;2.10;;;0.88;;
22234;SDS011;11286;45.596;5.284;2022-09-17T17:12:56;1.27;;;0.70;;
22234;SDS011;11286;45.596;5.284;2022-09-17T17:15:22;2.40;;;0.90;;
22234;SDS011;11286;45.596;5.284;2022-09-17T17:17:48;2.58;;;1.00;;
22234;SDS011;11286;45.596;5.284;2022-09-17T17:20:14;1.42;;;0.70;;
22234;SDS011;11286;45.596;5.284;2022-09-17T17:22:41;2.35;;;0.57;;
22234;SDS011;11286;45.596;5.284;2022-09-17T17:25:07;2.08;;;0.68;;
22234;SDS011;11286;45.596;5.284;2022-09-17T17:27:34;1.75;;;0.70;;
22234;SDS011;11286;45.596;5.284;2022-09-17T17:30:00;2.28;;;0.90;;
22234;SDS011;11286;45.596;5.284;2022-09-17T17:32:30;2.33;;;0.70;;
22234;SDS011;11286;45.596;5.284;2022-09-17T17:34:57;0.90;;;0.70;;
22234;SDS011;11286;45.596;5.284;2022-09-17T17:37:23;2.30;;;0.80;;
22234;SDS011;11286;45.596;5.284;2022-09-17T17:39:49;2.25;;;0.80;;
22234;SDS011;11286;45.596;5.284;2022-09-17T17:42:15;1.48;;;0.63;;
22234;SDS011;11286;45.596;5.284;2022-09-17T17:44:41;1.33;;;0.50;;
22234;SDS011;11286;45.596;5.284;2022-09-17T17:47:06;2.38;;;0.70;;
22234;SDS011;11286;45.596;5.284;2022-09-17T17:49:32;2.63;;;0.90;;
22234;SDS011;11286;45.596;5.284;2022-09-17T17:51:58;1.10;;;0.65;;
22234;SDS011;11286;45.596;5.284;2022-09-17T17:54:24;2.22;;;0.70;;
22234;SDS011;11286;45.596;5.284;2022-09-17T17:56:52;1.50;;;0.70;;
22234;SDS011;11286;45.596;5.284;2022-09-17T17:59:18;1.58;;;0.90;;
22234;SDS011;11286;45.596;5.284;2022-09-17T18:01:43;1.55;;;0.70;;
22234;SDS011;11286;45.596;5.284;2022-09-17T18:04:09;2.75;;;0.93;;
22234;SDS011;11286;45.596;5.284;2022-09-17T18:06:34;1.70;;;0.70;;
22234;SDS011;11286;45.596;5.284;2022-09-17T18:09:01;1.63;;;0.80;;
22234;SDS011;11286;45.596;5.284;2022-09-17T18:11:27;2.92;;;0.90;;
22234;SDS011;11286;45.596;5.284;2022-09-17T18:13:54;1.52;;;0.82;;
22234;SDS011;11286;45.596;5.284;2022-09-17T18:16:22;2.03;;;1.02;;
22234;SDS011;11286;45.596;5.284;2022-09-17T18:18:48;4.10;;;0.77;;
22234;SDS011;11286;45.596;5.284;2022-09-17T18:21:18;3.60;;;1.00;;
22234;SDS011;11286;45.596;5.284;2022-09-17T18:23:45;2.90;;;0.80;;
22234;SDS011;11286;45.596;5.284;2022-09-17T18:26:12;2.08;;;0.70;;
22234;SDS011;11286;45.596;5.284;2022-09-17T18:28:39;4.15;;;0.77;;
22234;SDS011;11286;45.596;5.284;2022-09-17T18:31:06;1.30;;;0.80;;
22234;SDS011;11286;45.596;5.284;2022-09-17T18:33:33;1.48;;;0.60;;
22234;SDS011;11286;45.596;5.284;2022-09-17T18:36:00;1.77;;;1.13;;
22234;SDS011;11286;45.596;5.284;2022-09-17T18:38:27;1.75;;;0.80;;
22234;SDS011;11286;45.596;5.284;2022-09-17T18:40:53;1.35;;;0.70;;
22234;SDS011;11286;45.596;5.284;2022-09-17T18:43:19;3.10;;;0.88;;
22234;SDS011;11286;45.596;5.284;2022-09-17T18:45:52;1.63;;;0.90;;
22234;SDS011;11286;45.596;5.284;2022-09-17T18:48:19;2.63;;;0.90;;
22234;SDS011;11286;45.596;5.284;2022-09-17T18:50:58;3.47;;;1.00;;